sensor_id;sensor_type;location;lat;lon;timestamp;P1;durP1;ratioP1;P2;durP2;ratioP2
16173;SDS011;14031;50.158;8.626;2022-12-07T00:00:34;11.77;;;9.53;;
16173;SDS011;14031;50.158;8.626;2022-12-07T00:03:01;12.33;;;9.30;;
16173;SDS011;14031;50.158;8.626;2022-12-07T00:05:29;13.70;;;10.23;;
16173;SDS011;14031;50.158;8.626;2022-12-07T00:07:57;11.20;;;9.73;;
16173;SDS011;14031;50.158;8.626;2022-12-07T00:10:24;12.33;;;9.63;;
16173;SDS011;14031;50.158;8.626;2022-12-07T00:12:51;14.00;;;10.17;;
16173;SDS011;14031;50.158;8.626;2022-12-07T00:15:17;14.30;;;9.80;;
16173;SDS011;14031;50.158;8.626;2022-12-07T00:17:44;12.57;;;10.50;;
16173;SDS011;14031;50.158;8.626;2022-12-07T00:20:11;12.53;;;10.03;;
16173;SDS011;14031;50.158;8.626;2022-12-07T00:22:38;13.43;;;9.90;;
16173;SDS011;14031;50.158;8.626;2022-12-07T00:25:06;13.10;;;10.40;;
16173;SDS011;14031;50.158;8.626;2022-12-07T00:27:33;15.30;;;10.10;;
16173;SDS011;14031;50.158;8.626;2022-12-07T00:30:00;12.73;;;9.83;;
16173;SDS011;14031;50.158;8.626;2022-12-07T00:32:27;14.47;;;9.87;;
16173;SDS011;14031;50.158;8.626;2022-12-07T00:34:54;11.67;;;9.33;;
16173;SDS011;14031;50.158;8.626;2022-12-07T00:37:20;11.83;;;9.80;;
16173;SDS011;14031;50.158;8.626;2022-12-07T00:39:47;13.83;;;10.23;;
16173;SDS011;14031;50.158;8.626;2022-12-07T00:42:15;12.20;;;9.53;;
16173;SDS011;14031;50.158;8.626;2022-12-07T00:44:42;13.40;;;9.87;;
16173;SDS011;14031;50.158;8.626;2022-12-07T00:47:09;11.87;;;9.90;;
16173;SDS011;14031;50.158;8.626;2022-12-07T00:49:35;11.13;;;9.13;;
16173;SDS011;14031;50.158;8.626;2022-12-07T00:52:02;12.17;;;9.57;;
16173;SDS011;14031;50.158;8.626;2022-12-07T00:54:29;11.37;;;9.80;;
16173;SDS011;14031;50.158;8.626;2022-12-07T00:56:56;11.93;;;9.00;;
16173;SDS011;14031;50.158;8.626;2022-12-07T00:59:24;14.73;;;9.23;;
16173;SDS011;14031;50.158;8.626;2022-12-07T01:01:51;13.97;;;9.40;;
16173;SDS011;14031;50.158;8.626;2022-12-07T01:04:18;12.33;;;9.47;;
16173;SDS011;14031;50.158;8.626;2022-12-07T01:06:44;14.10;;;10.13;;
16173;SDS011;14031;50.158;8.626;2022-12-07T01:09:11;10.27;;;8.93;;
16173;SDS011;14031;50.158;8.626;2022-12-07T01:11:38;12.50;;;9.17;;
16173;SDS011;14031;50.158;8.626;2022-12-07T01:14:05;11.93;;;9.60;;
16173;SDS011;14031;50.158;8.626;2022-12-07T01:16:33;11.70;;;9.13;;
16173;SDS011;14031;50.158;8.626;2022-12-07T01:19:00;11.67;;;9.03;;
16173;SDS011;14031;50.158;8.626;2022-12-07T01:21:30;14.53;;;8.37;;
16173;SDS011;14031;50.158;8.626;2022-12-07T01:23:59;9.73;;;8.67;;
16173;SDS011;14031;50.158;8.626;2022-12-07T01:26:28;10.70;;;8.43;;
16173;SDS011;14031;50.158;8.626;2022-12-07T01:28:55;12.40;;;8.87;;
16173;SDS011;14031;50.158;8.626;2022-12-07T01:31:24;9.67;;;8.47;;
16173;SDS011;14031;50.158;8.626;2022-12-07T01:33:54;11.30;;;8.50;;
16173;SDS011;14031;50.158;8.626;2022-12-07T01:36:22;12.17;;;9.03;;
16173;SDS011;14031;50.158;8.626;2022-12-07T01:38:51;10.00;;;8.40;;
16173;SDS011;14031;50.158;8.626;2022-12-07T01:41:22;10.43;;;8.20;;
16173;SDS011;14031;50.158;8.626;2022-12-07T01:44:09;8.57;;;7.27;;
16173;SDS011;14031;50.158;8.626;2022-12-07T01:46:38;10.70;;;8.37;;
16173;SDS011;14031;50.158;8.626;2022-12-07T01:49:08;9.97;;;8.03;;
16173;SDS011;14031;50.158;8.626;2022-12-07T01:51:37;10.20;;;8.37;;
16173;SDS011;14031;50.158;8.626;2022-12-07T01:54:06;10.00;;;8.23;;
16173;SDS011;14031;50.158;8.626;2022-12-07T01:56:34;10.50;;;8.30;;
16173;SDS011;14031;50.158;8.626;2022-12-07T01:59:02;8.40;;;7.47;;
16173;SDS011;14031;50.158;8.626;2022-12-07T02:01:29;9.40;;;8.40;;
16173;SDS011;14031;50.158;8.626;2022-12-07T02:03:56;9.17;;;7.93;;
16173;SDS011;14031;50.158;8.626;2022-12-07T02:06:25;12.10;;;8.10;;
16173;SDS011;14031;50.158;8.626;2022-12-07T02:08:52;13.17;;;8.03;;
16173;SDS011;14031;50.158;8.626;2022-12-07T02:11:19;11.50;;;8.10;;
16173;SDS011;14031;50.158;8.626;2022-12-07T02:13:47;12.43;;;8.33;;
16173;SDS011;14031;50.158;8.626;2022-12-07T02:16:18;11.00;;;8.27;;
16173;SDS011;14031;50.158;8.626;2022-12-07T02:19:00;9.73;;;8.73;;
16173;SDS011;14031;50.158;8.626;2022-12-07T02:21:42;10.70;;;7.53;;
16173;SDS011;14031;50.158;8.626;2022-12-07T02:24:23;8.00;;;7.20;;
16173;SDS011;14031;50.158;8.626;2022-12-07T02:27:12;10.60;;;7.77;;
16173;SDS011;14031;50.158;8.626;2022-12-07T02:30:07;9.27;;;7.73;;
16173;SDS011;14031;50.158;8.626;2022-12-07T02:32:39;9.07;;;7.83;;
16173;SDS011;14031;50.158;8.626;2022-12-07T02:35:11;8.63;;;7.27;;
16173;SDS011;14031;50.158;8.626;2022-12-07T02:37:47;7.77;;;6.97;;
16173;SDS011;14031;50.158;8.626;2022-12-07T02:40:21;11.73;;;7.40;;
16173;SDS011;14031;50.158;8.626;2022-12-07T02:42:52;7.63;;;6.73;;
16173;SDS011;14031;50.158;8.626;2022-12-07T02:45:25;8.27;;;7.37;;
16173;SDS011;14031;50.158;8.626;2022-12-07T02:47:56;8.33;;;7.00;;
16173;SDS011;14031;50.158;8.626;2022-12-07T02:50:25;8.40;;;7.60;;
16173;SDS011;14031;50.158;8.626;2022-12-07T02:52:53;10.43;;;7.13;;
16173;SDS011;14031;50.158;8.626;2022-12-07T02:55:21;8.73;;;7.27;;
16173;SDS011;14031;50.158;8.626;2022-12-07T02:57:54;9.57;;;7.10;;
16173;SDS011;14031;50.158;8.626;2022-12-07T03:00:34;8.50;;;7.03;;
16173;SDS011;14031;50.158;8.626;2022-12-07T03:03:09;7.77;;;6.77;;
16173;SDS011;14031;50.158;8.626;2022-12-07T03:05:46;11.20;;;7.27;;
16173;SDS011;14031;50.158;8.626;2022-12-07T03:08:26;9.27;;;7.27;;
16173;SDS011;14031;50.158;8.626;2022-12-07T03:11:02;7.97;;;7.13;;
16173;SDS011;14031;50.158;8.626;2022-12-07T03:13:33;8.20;;;7.33;;
16173;SDS011;14031;50.158;8.626;2022-12-07T03:16:07;9.10;;;7.07;;
16173;SDS011;14031;50.158;8.626;2022-12-07T03:18:38;11.57;;;7.30;;
16173;SDS011;14031;50.158;8.626;2022-12-07T03:21:09;7.57;;;6.77;;
16173;SDS011;14031;50.158;8.626;2022-12-07T03:23:40;8.13;;;7.33;;
16173;SDS011;14031;50.158;8.626;2022-12-07T03:26:09;9.67;;;7.13;;
16173;SDS011;14031;50.158;8.626;2022-12-07T03:28:41;8.10;;;7.30;;
16173;SDS011;14031;50.158;8.626;2022-12-07T03:31:13;7.70;;;6.83;;
16173;SDS011;14031;50.158;8.626;2022-12-07T03:33:46;7.70;;;7.00;;
16173;SDS011;14031;50.158;8.626;2022-12-07T03:36:19;7.80;;;6.50;;
16173;SDS011;14031;50.158;8.626;2022-12-07T03:38:53;7.93;;;7.07;;
16173;SDS011;14031;50.158;8.626;2022-12-07T03:41:25;7.53;;;6.83;;
16173;SDS011;14031;50.158;8.626;2022-12-07T03:43:54;11.97;;;7.00;;
16173;SDS011;14031;50.158;8.626;2022-12-07T03:46:26;7.43;;;6.63;;
16173;SDS011;14031;50.158;8.626;2022-12-07T03:49:00;7.17;;;6.47;;
16173;SDS011;14031;50.158;8.626;2022-12-07T03:51:36;7.00;;;6.30;;
16173;SDS011;14031;50.158;8.626;2022-12-07T03:54:09;9.10;;;6.60;;
16173;SDS011;14031;50.158;8.626;2022-12-07T03:56:39;10.03;;;7.20;;
16173;SDS011;14031;50.158;8.626;2022-12-07T03:59:09;10.67;;;7.00;;
16173;SDS011;14031;50.158;8.626;2022-12-07T04:01:42;7.73;;;6.00;;
16173;SDS011;14031;50.158;8.626;2022-12-07T04:04:09;7.33;;;6.17;;
16173;SDS011;14031;50.158;8.626;2022-12-07T04:06:39;7.73;;;6.10;;
16173;SDS011;14031;50.158;8.626;2022-12-07T04:09:05;8.27;;;6.70;;
16173;SDS011;14031;50.158;8.626;2022-12-07T04:11:38;6.83;;;6.23;;
16173;SDS011;14031;50.158;8.626;2022-12-07T04:14:05;7.83;;;6.10;;
16173;SDS011;14031;50.158;8.626;2022-12-07T04:16:45;6.40;;;5.90;;
16173;SDS011;14031;50.158;8.626;2022-12-07T04:19:13;7.37;;;6.53;;
16173;SDS011;14031;50.158;8.626;2022-12-07T04:21:40;12.47;;;6.07;;
16173;SDS011;14031;50.158;8.626;2022-12-07T04:24:07;6.37;;;5.77;;
16173;SDS011;14031;50.158;8.626;2022-12-07T04:26:33;10.13;;;7.53;;
16173;SDS011;14031;50.158;8.626;2022-12-07T04:29:01;8.20;;;6.80;;
16173;SDS011;14031;50.158;8.626;2022-12-07T04:31:28;7.27;;;6.10;;
16173;SDS011;14031;50.158;8.626;2022-12-07T04:33:56;7.17;;;6.17;;
16173;SDS011;14031;50.158;8.626;2022-12-07T04:36:22;8.60;;;6.37;;
16173;SDS011;14031;50.158;8.626;2022-12-07T04:38:49;7.73;;;6.27;;
16173;SDS011;14031;50.158;8.626;2022-12-07T04:41:25;8.77;;;6.23;;
16173;SDS011;14031;50.158;8.626;2022-12-07T04:43:53;7.17;;;6.47;;
16173;SDS011;14031;50.158;8.626;2022-12-07T04:46:21;8.80;;;6.37;;
16173;SDS011;14031;50.158;8.626;2022-12-07T04:48:47;6.20;;;5.70;;
16173;SDS011;14031;50.158;8.626;2022-12-07T04:51:18;7.63;;;6.00;;
16173;SDS011;14031;50.158;8.626;2022-12-07T04:53:46;7.00;;;5.80;;
16173;SDS011;14031;50.158;8.626;2022-12-07T04:56:13;7.00;;;6.40;;
16173;SDS011;14031;50.158;8.626;2022-12-07T04:58:40;7.03;;;6.33;;
16173;SDS011;14031;50.158;8.626;2022-12-07T05:01:07;6.90;;;6.20;;
16173;SDS011;14031;50.158;8.626;2022-12-07T05:03:35;7.10;;;6.40;;
16173;SDS011;14031;50.158;8.626;2022-12-07T05:06:02;6.60;;;5.90;;
16173;SDS011;14031;50.158;8.626;2022-12-07T05:08:31;9.67;;;8.50;;
16173;SDS011;14031;50.158;8.626;2022-12-07T05:10:58;12.00;;;7.17;;
16173;SDS011;14031;50.158;8.626;2022-12-07T05:13:25;7.70;;;6.97;;
16173;SDS011;14031;50.158;8.626;2022-12-07T05:15:52;8.27;;;6.13;;
16173;SDS011;14031;50.158;8.626;2022-12-07T05:18:22;12.40;;;6.40;;
16173;SDS011;14031;50.158;8.626;2022-12-07T05:20:49;7.57;;;6.30;;
16173;SDS011;14031;50.158;8.626;2022-12-07T05:23:16;7.80;;;6.13;;
16173;SDS011;14031;50.158;8.626;2022-12-07T05:25:45;6.27;;;5.70;;
16173;SDS011;14031;50.158;8.626;2022-12-07T05:28:12;6.87;;;6.23;;
16173;SDS011;14031;50.158;8.626;2022-12-07T05:30:39;8.33;;;6.47;;
16173;SDS011;14031;50.158;8.626;2022-12-07T05:33:06;6.87;;;6.17;;
16173;SDS011;14031;50.158;8.626;2022-12-07T05:35:33;8.70;;;6.20;;
16173;SDS011;14031;50.158;8.626;2022-12-07T05:38:00;7.33;;;6.63;;
16173;SDS011;14031;50.158;8.626;2022-12-07T05:40:27;7.30;;;6.37;;
16173;SDS011;14031;50.158;8.626;2022-12-07T05:42:57;6.63;;;6.03;;
16173;SDS011;14031;50.158;8.626;2022-12-07T05:45:24;7.33;;;6.47;;
16173;SDS011;14031;50.158;8.626;2022-12-07T05:47:50;7.37;;;6.60;;
16173;SDS011;14031;50.158;8.626;2022-12-07T05:50:17;7.90;;;6.30;;
16173;SDS011;14031;50.158;8.626;2022-12-07T05:52:44;8.13;;;6.60;;
16173;SDS011;14031;50.158;8.626;2022-12-07T05:55:11;7.13;;;6.43;;
16173;SDS011;14031;50.158;8.626;2022-12-07T05:57:38;6.50;;;5.90;;
16173;SDS011;14031;50.158;8.626;2022-12-07T06:00:06;6.70;;;6.03;;
16173;SDS011;14031;50.158;8.626;2022-12-07T06:02:38;5.87;;;5.37;;
16173;SDS011;14031;50.158;8.626;2022-12-07T06:05:06;7.70;;;6.23;;
16173;SDS011;14031;50.158;8.626;2022-12-07T06:07:33;7.23;;;5.90;;
16173;SDS011;14031;50.158;8.626;2022-12-07T06:10:00;6.93;;;6.27;;
16173;SDS011;14031;50.158;8.626;2022-12-07T06:12:26;9.33;;;6.30;;
16173;SDS011;14031;50.158;8.626;2022-12-07T06:15:10;6.97;;;6.40;;
16173;SDS011;14031;50.158;8.626;2022-12-07T06:17:38;7.83;;;6.87;;
16173;SDS011;14031;50.158;8.626;2022-12-07T06:20:07;7.40;;;6.70;;
16173;SDS011;14031;50.158;8.626;2022-12-07T06:22:37;8.13;;;6.80;;
16173;SDS011;14031;50.158;8.626;2022-12-07T06:25:04;8.33;;;7.30;;
16173;SDS011;14031;50.158;8.626;2022-12-07T06:27:32;7.27;;;6.57;;
16173;SDS011;14031;50.158;8.626;2022-12-07T06:30:00;8.00;;;7.20;;
16173;SDS011;14031;50.158;8.626;2022-12-07T06:32:32;8.87;;;6.70;;
16173;SDS011;14031;50.158;8.626;2022-12-07T06:34:59;7.83;;;6.93;;
16173;SDS011;14031;50.158;8.626;2022-12-07T06:37:26;10.30;;;7.70;;
16173;SDS011;14031;50.158;8.626;2022-12-07T06:39:56;7.23;;;6.53;;
16173;SDS011;14031;50.158;8.626;2022-12-07T06:42:22;9.37;;;7.53;;
16173;SDS011;14031;50.158;8.626;2022-12-07T06:44:55;11.30;;;6.93;;
16173;SDS011;14031;50.158;8.626;2022-12-07T06:47:28;7.70;;;7.00;;
16173;SDS011;14031;50.158;8.626;2022-12-07T06:49:56;8.07;;;7.23;;
16173;SDS011;14031;50.158;8.626;2022-12-07T06:52:22;10.13;;;7.63;;
16173;SDS011;14031;50.158;8.626;2022-12-07T06:54:49;6.93;;;6.23;;
16173;SDS011;14031;50.158;8.626;2022-12-07T06:57:16;9.63;;;7.63;;
16173;SDS011;14031;50.158;8.626;2022-12-07T06:59:45;8.20;;;7.40;;
16173;SDS011;14031;50.158;8.626;2022-12-07T07:02:12;10.23;;;7.20;;
16173;SDS011;14031;50.158;8.626;2022-12-07T07:04:38;9.13;;;7.50;;
16173;SDS011;14031;50.158;8.626;2022-12-07T07:07:06;8.70;;;7.73;;
16173;SDS011;14031;50.158;8.626;2022-12-07T07:09:33;10.83;;;7.73;;
16173;SDS011;14031;50.158;8.626;2022-12-07T07:12:00;9.80;;;6.77;;
16173;SDS011;14031;50.158;8.626;2022-12-07T07:14:27;10.07;;;7.67;;
16173;SDS011;14031;50.158;8.626;2022-12-07T07:16:53;9.27;;;7.50;;
16173;SDS011;14031;50.158;8.626;2022-12-07T07:19:20;8.30;;;6.60;;
16173;SDS011;14031;50.158;8.626;2022-12-07T07:21:47;10.03;;;7.90;;
16173;SDS011;14031;50.158;8.626;2022-12-07T07:24:15;9.97;;;7.60;;
16173;SDS011;14031;50.158;8.626;2022-12-07T07:26:42;8.83;;;7.93;;
16173;SDS011;14031;50.158;8.626;2022-12-07T07:29:09;10.03;;;7.17;;
16173;SDS011;14031;50.158;8.626;2022-12-07T07:31:35;9.67;;;7.70;;
16173;SDS011;14031;50.158;8.626;2022-12-07T07:34:02;9.93;;;7.83;;
16173;SDS011;14031;50.158;8.626;2022-12-07T07:36:30;10.10;;;8.10;;
16173;SDS011;14031;50.158;8.626;2022-12-07T07:38:56;11.70;;;9.00;;
16173;SDS011;14031;50.158;8.626;2022-12-07T07:41:25;9.57;;;7.50;;
16173;SDS011;14031;50.158;8.626;2022-12-07T07:43:51;8.07;;;7.17;;
16173;SDS011;14031;50.158;8.626;2022-12-07T07:46:18;8.17;;;7.00;;
16173;SDS011;14031;50.158;8.626;2022-12-07T07:48:45;8.57;;;7.70;;
16173;SDS011;14031;50.158;8.626;2022-12-07T07:51:11;10.13;;;7.50;;
16173;SDS011;14031;50.158;8.626;2022-12-07T07:53:39;7.47;;;6.77;;
16173;SDS011;14031;50.158;8.626;2022-12-07T07:56:06;7.40;;;6.67;;
16173;SDS011;14031;50.158;8.626;2022-12-07T07:58:37;7.03;;;6.13;;
16173;SDS011;14031;50.158;8.626;2022-12-07T08:01:08;9.23;;;6.27;;
16173;SDS011;14031;50.158;8.626;2022-12-07T08:03:44;7.60;;;5.87;;
16173;SDS011;14031;50.158;8.626;2022-12-07T08:06:11;9.47;;;6.17;;
16173;SDS011;14031;50.158;8.626;2022-12-07T08:08:39;9.60;;;8.00;;
16173;SDS011;14031;50.158;8.626;2022-12-07T08:11:05;6.97;;;6.30;;
16173;SDS011;14031;50.158;8.626;2022-12-07T08:13:33;5.83;;;5.33;;
16173;SDS011;14031;50.158;8.626;2022-12-07T08:16:04;13.23;;;7.10;;
16173;SDS011;14031;50.158;8.626;2022-12-07T08:18:34;7.03;;;6.43;;
16173;SDS011;14031;50.158;8.626;2022-12-07T08:21:02;6.20;;;5.70;;
16173;SDS011;14031;50.158;8.626;2022-12-07T08:23:29;8.73;;;5.57;;
16173;SDS011;14031;50.158;8.626;2022-12-07T08:25:59;6.83;;;5.00;;
16173;SDS011;14031;50.158;8.626;2022-12-07T08:28:26;6.30;;;5.10;;
16173;SDS011;14031;50.158;8.626;2022-12-07T08:31:06;5.63;;;4.97;;
16173;SDS011;14031;50.158;8.626;2022-12-07T08:33:38;5.67;;;4.93;;
16173;SDS011;14031;50.158;8.626;2022-12-07T08:36:06;5.30;;;4.90;;
16173;SDS011;14031;50.158;8.626;2022-12-07T08:38:34;5.70;;;5.07;;
16173;SDS011;14031;50.158;8.626;2022-12-07T08:41:01;6.27;;;5.67;;
16173;SDS011;14031;50.158;8.626;2022-12-07T08:43:28;9.77;;;5.20;;
16173;SDS011;14031;50.158;8.626;2022-12-07T08:45:56;6.73;;;5.73;;
16173;SDS011;14031;50.158;8.626;2022-12-07T08:48:33;6.57;;;5.97;;
16173;SDS011;14031;50.158;8.626;2022-12-07T08:51:01;5.93;;;5.50;;
16173;SDS011;14031;50.158;8.626;2022-12-07T08:53:29;5.63;;;5.07;;
16173;SDS011;14031;50.158;8.626;2022-12-07T08:55:57;6.43;;;5.20;;
16173;SDS011;14031;50.158;8.626;2022-12-07T08:58:24;5.67;;;5.17;;
16173;SDS011;14031;50.158;8.626;2022-12-07T09:00:51;6.33;;;5.77;;
16173;SDS011;14031;50.158;8.626;2022-12-07T09:03:19;7.70;;;6.10;;
16173;SDS011;14031;50.158;8.626;2022-12-07T09:05:45;6.13;;;5.53;;
16173;SDS011;14031;50.158;8.626;2022-12-07T09:08:12;9.50;;;5.90;;
16173;SDS011;14031;50.158;8.626;2022-12-07T09:10:39;7.00;;;5.67;;
16173;SDS011;14031;50.158;8.626;2022-12-07T09:13:06;6.57;;;5.93;;
16173;SDS011;14031;50.158;8.626;2022-12-07T09:15:33;7.33;;;5.30;;
16173;SDS011;14031;50.158;8.626;2022-12-07T09:18:00;10.10;;;5.37;;
16173;SDS011;14031;50.158;8.626;2022-12-07T09:20:28;5.10;;;4.80;;
16173;SDS011;14031;50.158;8.626;2022-12-07T09:22:54;5.30;;;4.90;;
16173;SDS011;14031;50.158;8.626;2022-12-07T09:25:21;5.70;;;4.83;;
16173;SDS011;14031;50.158;8.626;2022-12-07T09:27:51;6.53;;;4.63;;
16173;SDS011;14031;50.158;8.626;2022-12-07T09:30:22;6.93;;;4.13;;
16173;SDS011;14031;50.158;8.626;2022-12-07T09:32:48;5.20;;;4.80;;
16173;SDS011;14031;50.158;8.626;2022-12-07T09:35:15;6.03;;;4.77;;
16173;SDS011;14031;50.158;8.626;2022-12-07T09:37:43;6.17;;;5.60;;
16173;SDS011;14031;50.158;8.626;2022-12-07T09:40:10;4.90;;;4.50;;
16173;SDS011;14031;50.158;8.626;2022-12-07T09:42:38;6.40;;;5.80;;
16173;SDS011;14031;50.158;8.626;2022-12-07T09:45:11;7.00;;;5.53;;
16173;SDS011;14031;50.158;8.626;2022-12-07T09:47:41;6.23;;;5.63;;
16173;SDS011;14031;50.158;8.626;2022-12-07T09:50:11;6.13;;;5.53;;
16173;SDS011;14031;50.158;8.626;2022-12-07T09:52:41;7.13;;;6.43;;
16173;SDS011;14031;50.158;8.626;2022-12-07T09:55:13;7.63;;;5.27;;
16173;SDS011;14031;50.158;8.626;2022-12-07T09:57:41;5.60;;;5.10;;
16173;SDS011;14031;50.158;8.626;2022-12-07T10:00:12;5.17;;;4.63;;
16173;SDS011;14031;50.158;8.626;2022-12-07T10:02:42;6.10;;;4.83;;
16173;SDS011;14031;50.158;8.626;2022-12-07T10:05:13;5.43;;;5.03;;
16173;SDS011;14031;50.158;8.626;2022-12-07T10:07:41;4.67;;;4.30;;
16173;SDS011;14031;50.158;8.626;2022-12-07T10:10:15;4.83;;;4.43;;
16173;SDS011;14031;50.158;8.626;2022-12-07T10:12:58;3.87;;;3.67;;
16173;SDS011;14031;50.158;8.626;2022-12-07T10:18:31;3.03;;;2.80;;
16173;SDS011;14031;50.158;8.626;2022-12-07T10:24:02;3.10;;;2.83;;
16173;SDS011;14031;50.158;8.626;2022-12-07T10:26:33;3.33;;;3.07;;
16173;SDS011;14031;50.158;8.626;2022-12-07T10:29:03;2.80;;;2.70;;
16173;SDS011;14031;50.158;8.626;2022-12-07T10:31:41;5.27;;;3.00;;
16173;SDS011;14031;50.158;8.626;2022-12-07T10:34:14;4.87;;;3.30;;
16173;SDS011;14031;50.158;8.626;2022-12-07T10:36:49;2.77;;;2.47;;
16173;SDS011;14031;50.158;8.626;2022-12-07T10:39:17;4.83;;;2.80;;
16173;SDS011;14031;50.158;8.626;2022-12-07T10:41:53;2.87;;;2.60;;
16173;SDS011;14031;50.158;8.626;2022-12-07T10:44:22;3.00;;;2.40;;
16173;SDS011;14031;50.158;8.626;2022-12-07T10:46:53;2.77;;;2.57;;
16173;SDS011;14031;50.158;8.626;2022-12-07T10:49:51;2.23;;;2.13;;
16173;SDS011;14031;50.158;8.626;2022-12-07T10:52:45;2.37;;;2.00;;
16173;SDS011;14031;50.158;8.626;2022-12-07T10:55:25;2.83;;;2.17;;
16173;SDS011;14031;50.158;8.626;2022-12-07T11:01:03;3.03;;;2.30;;
16173;SDS011;14031;50.158;8.626;2022-12-07T11:03:45;2.93;;;2.13;;
16173;SDS011;14031;50.158;8.626;2022-12-07T11:06:34;2.87;;;2.03;;
16173;SDS011;14031;50.158;8.626;2022-12-07T11:09:18;3.97;;;2.40;;
16173;SDS011;14031;50.158;8.626;2022-12-07T11:12:15;3.57;;;2.07;;
16173;SDS011;14031;50.158;8.626;2022-12-07T11:14:49;2.80;;;2.60;;
16173;SDS011;14031;50.158;8.626;2022-12-07T11:17:24;2.33;;;2.23;;
16173;SDS011;14031;50.158;8.626;2022-12-07T11:20:01;3.83;;;2.80;;
16173;SDS011;14031;50.158;8.626;2022-12-07T11:22:40;5.80;;;2.50;;
16173;SDS011;14031;50.158;8.626;2022-12-07T11:25:17;2.63;;;2.30;;
16173;SDS011;14031;50.158;8.626;2022-12-07T11:27:52;3.27;;;2.97;;
16173;SDS011;14031;50.158;8.626;2022-12-07T11:30:29;2.70;;;2.50;;
16173;SDS011;14031;50.158;8.626;2022-12-07T11:33:16;4.17;;;2.77;;
16173;SDS011;14031;50.158;8.626;2022-12-07T11:35:54;2.60;;;2.40;;
16173;SDS011;14031;50.158;8.626;2022-12-07T11:38:31;2.57;;;2.37;;
16173;SDS011;14031;50.158;8.626;2022-12-07T11:41:08;4.47;;;2.40;;
16173;SDS011;14031;50.158;8.626;2022-12-07T11:43:46;2.40;;;2.20;;
16173;SDS011;14031;50.158;8.626;2022-12-07T11:46:19;3.70;;;2.30;;
16173;SDS011;14031;50.158;8.626;2022-12-07T11:48:53;2.37;;;2.00;;
16173;SDS011;14031;50.158;8.626;2022-12-07T11:51:25;2.87;;;2.00;;
16173;SDS011;14031;50.158;8.626;2022-12-07T11:53:54;2.87;;;1.80;;
16173;SDS011;14031;50.158;8.626;2022-12-07T11:56:26;1.60;;;1.50;;
16173;SDS011;14031;50.158;8.626;2022-12-07T11:58:55;4.47;;;1.93;;
16173;SDS011;14031;50.158;8.626;2022-12-07T12:01:26;3.57;;;1.83;;
16173;SDS011;14031;50.158;8.626;2022-12-07T12:04:03;2.03;;;1.90;;
16173;SDS011;14031;50.158;8.626;2022-12-07T12:06:41;5.87;;;2.80;;
16173;SDS011;14031;50.158;8.626;2022-12-07T12:09:11;2.00;;;1.90;;
16173;SDS011;14031;50.158;8.626;2022-12-07T12:11:45;3.17;;;2.10;;
16173;SDS011;14031;50.158;8.626;2022-12-07T12:14:32;1.80;;;1.70;;
16173;SDS011;14031;50.158;8.626;2022-12-07T12:20:13;2.23;;;1.67;;
16173;SDS011;14031;50.158;8.626;2022-12-07T12:22:46;2.57;;;1.60;;
16173;SDS011;14031;50.158;8.626;2022-12-07T12:25:19;2.33;;;1.93;;
16173;SDS011;14031;50.158;8.626;2022-12-07T12:27:47;1.93;;;1.80;;
16173;SDS011;14031;50.158;8.626;2022-12-07T12:33:05;6.50;;;1.80;;
16173;SDS011;14031;50.158;8.626;2022-12-07T12:35:40;1.87;;;1.77;;
16173;SDS011;14031;50.158;8.626;2022-12-07T12:38:24;1.90;;;1.80;;
16173;SDS011;14031;50.158;8.626;2022-12-07T12:40:58;1.70;;;1.60;;
16173;SDS011;14031;50.158;8.626;2022-12-07T12:43:45;1.67;;;1.40;;
16173;SDS011;14031;50.158;8.626;2022-12-07T12:46:38;2.03;;;1.70;;
16173;SDS011;14031;50.158;8.626;2022-12-07T12:58:35;1.20;;;1.00;;
16173;SDS011;14031;50.158;8.626;2022-12-07T13:04:17;2.60;;;1.70;;
16173;SDS011;14031;50.158;8.626;2022-12-07T13:07:04;1.57;;;1.47;;
16173;SDS011;14031;50.158;8.626;2022-12-07T13:09:37;1.47;;;1.37;;
16173;SDS011;14031;50.158;8.626;2022-12-07T13:12:11;1.43;;;1.33;;
16173;SDS011;14031;50.158;8.626;2022-12-07T13:14:42;1.60;;;1.33;;
16173;SDS011;14031;50.158;8.626;2022-12-07T13:23:19;1.57;;;1.47;;
16173;SDS011;14031;50.158;8.626;2022-12-07T13:26:03;1.60;;;1.50;;
16173;SDS011;14031;50.158;8.626;2022-12-07T13:28:42;3.40;;;1.87;;
16173;SDS011;14031;50.158;8.626;2022-12-07T13:31:19;1.70;;;1.60;;
16173;SDS011;14031;50.158;8.626;2022-12-07T13:33:50;3.83;;;1.73;;
16173;SDS011;14031;50.158;8.626;2022-12-07T13:36:19;1.90;;;1.80;;
16173;SDS011;14031;50.158;8.626;2022-12-07T13:38:49;5.67;;;1.40;;
16173;SDS011;14031;50.158;8.626;2022-12-07T13:41:20;1.50;;;1.40;;
16173;SDS011;14031;50.158;8.626;2022-12-07T13:43:50;1.27;;;1.17;;
16173;SDS011;14031;50.158;8.626;2022-12-07T13:46:32;1.30;;;1.20;;
16173;SDS011;14031;50.158;8.626;2022-12-07T13:49:15;1.63;;;1.13;;
16173;SDS011;14031;50.158;8.626;2022-12-07T13:51:45;1.13;;;1.13;;
16173;SDS011;14031;50.158;8.626;2022-12-07T13:54:12;1.40;;;1.30;;
16173;SDS011;14031;50.158;8.626;2022-12-07T13:56:42;1.57;;;1.30;;
16173;SDS011;14031;50.158;8.626;2022-12-07T13:59:12;1.53;;;1.43;;
16173;SDS011;14031;50.158;8.626;2022-12-07T14:01:40;1.60;;;1.50;;
16173;SDS011;14031;50.158;8.626;2022-12-07T14:07:01;3.20;;;1.60;;
16173;SDS011;14031;50.158;8.626;2022-12-07T14:09:53;1.40;;;1.30;;
16173;SDS011;14031;50.158;8.626;2022-12-07T14:12:23;1.50;;;1.40;;
16173;SDS011;14031;50.158;8.626;2022-12-07T14:14:50;1.53;;;1.50;;
16173;SDS011;14031;50.158;8.626;2022-12-07T14:17:21;2.00;;;1.80;;
16173;SDS011;14031;50.158;8.626;2022-12-07T14:19:50;1.63;;;1.53;;
16173;SDS011;14031;50.158;8.626;2022-12-07T14:22:22;1.80;;;1.70;;
16173;SDS011;14031;50.158;8.626;2022-12-07T14:27:51;2.63;;;1.43;;
16173;SDS011;14031;50.158;8.626;2022-12-07T14:30:21;1.40;;;1.30;;
16173;SDS011;14031;50.158;8.626;2022-12-07T14:32:50;1.40;;;1.30;;
16173;SDS011;14031;50.158;8.626;2022-12-07T14:35:19;1.90;;;1.80;;
16173;SDS011;14031;50.158;8.626;2022-12-07T14:37:47;2.03;;;1.70;;
16173;SDS011;14031;50.158;8.626;2022-12-07T14:40:15;2.17;;;1.40;;
16173;SDS011;14031;50.158;8.626;2022-12-07T14:42:43;1.30;;;1.20;;
16173;SDS011;14031;50.158;8.626;2022-12-07T14:45:15;1.50;;;1.40;;
16173;SDS011;14031;50.158;8.626;2022-12-07T14:47:44;1.20;;;1.10;;
16173;SDS011;14031;50.158;8.626;2022-12-07T14:50:12;0.70;;;0.70;;
16173;SDS011;14031;50.158;8.626;2022-12-07T14:52:40;0.80;;;0.80;;
16173;SDS011;14031;50.158;8.626;2022-12-07T14:55:17;1.13;;;1.13;;
16173;SDS011;14031;50.158;8.626;2022-12-07T14:57:48;1.40;;;1.30;;
16173;SDS011;14031;50.158;8.626;2022-12-07T15:00:17;6.63;;;1.60;;
16173;SDS011;14031;50.158;8.626;2022-12-07T15:02:46;7.90;;;1.77;;
16173;SDS011;14031;50.158;8.626;2022-12-07T15:05:15;7.47;;;1.73;;
16173;SDS011;14031;50.158;8.626;2022-12-07T15:07:42;1.80;;;1.70;;
16173;SDS011;14031;50.158;8.626;2022-12-07T15:10:13;2.90;;;1.80;;
16173;SDS011;14031;50.158;8.626;2022-12-07T15:12:43;3.60;;;1.90;;
16173;SDS011;14031;50.158;8.626;2022-12-07T15:15:10;3.70;;;2.00;;
16173;SDS011;14031;50.158;8.626;2022-12-07T15:17:39;7.60;;;2.33;;
16173;SDS011;14031;50.158;8.626;2022-12-07T15:20:07;6.23;;;2.00;;
16173;SDS011;14031;50.158;8.626;2022-12-07T15:22:37;2.50;;;1.60;;
16173;SDS011;14031;50.158;8.626;2022-12-07T15:25:04;1.47;;;1.37;;
16173;SDS011;14031;50.158;8.626;2022-12-07T15:27:31;2.87;;;1.80;;
16173;SDS011;14031;50.158;8.626;2022-12-07T15:29:58;1.57;;;1.47;;
16173;SDS011;14031;50.158;8.626;2022-12-07T15:32:24;4.43;;;1.90;;
16173;SDS011;14031;50.158;8.626;2022-12-07T15:34:53;1.60;;;1.47;;
16173;SDS011;14031;50.158;8.626;2022-12-07T15:37:19;2.43;;;1.80;;
16173;SDS011;14031;50.158;8.626;2022-12-07T15:39:46;1.67;;;1.57;;
16173;SDS011;14031;50.158;8.626;2022-12-07T15:42:13;1.70;;;1.60;;
16173;SDS011;14031;50.158;8.626;2022-12-07T15:44:40;4.07;;;2.00;;